Last 24 Hours

Squaw-Belmont 8000'

Hourly Data | America/Los_Angeles
as of 5/24/19 2:32 PM PDT
Date & Time Temp (°F) RH (%) Dew Pt (°F) Wet Bulb (°F) Wind Dir (°) Wind Spd (mph) Wind Gust (mph) WindChill (°F) Latest Rain (In) New Snow (in) SnowDepth (in) Daily Min Temp (°F) Daily Max Temp (°F) Daily Rain (In)
5/24/19 - 1400 42.5 69 33.0 37.9 NW | 313 4.3 9.2 40.1 0.00 0.0 181 30.8 44.3 0.00
5/24/19 - 1300 43.8 64 32.6 38.3 NW | 305 3.3 7.6 41.1 0.00 0.0 181 30.8 43.9 0.00
5/24/19 - 1200 41.5 69 32.1 36.9 W | 263 1.3 5.8 41.9 0.00 0.0 181 30.8 43.3 0.00
5/24/19 - 1100 41.9 71 33.3 37.6 NE | 42 2.3 8.3 39.3 0.00 0.0 181 30.8 42.3 0.00
5/24/19 - 1000 39.6 85 35.3 37.5 ESE | 118 2.0 5.4 37.8 0.00 0.0 182 30.8 41.0 0.00
5/24/19 - 0900 37.2 89 34.3 35.8 NE | 40 2.4 6.1 36.4 0.00 0.0 182 30.8 41.0 0.00
5/24/19 - 0800 37.5 87 33.9 35.7 ESE | 108 1.5 5.2 38.5 0.00 0.0 181 30.8 41.0 0.00
5/24/19 - 0700 38.8 82 33.7 36.3 NNW | 346 1.6 6.3 34.8 0.00 0.0 181 30.8 41.0 0.00
5/24/19 - 0600 33.0 95 31.7 32.4 N | 357 4.5 8.1 28.0 0.00 0.0 182 30.8 34.7 0.00
5/24/19 - 0500 31.3 94 29.8 30.6 NNW | 332 3.6 7.9 29.3 0.00 0.0 182 30.8 34.7 0.00
5/24/19 - 0400 34.5 88 31.4 33.0 NNW | 348 4.8 9.1 28.0 0.00 0.0 182 30.8 34.7 0.00
5/24/19 - 0300 32.0 94 30.5 31.3 NW | 316 3.3 7.3 28.9 0.00 0.0 182 30.8 34.3 0.00
5/24/19 - 0200 31.5 97 30.7 31.1 NNW | 339 4.1 9.8 30.0 0.00 0.0 182 30.8 34.3 0.00
5/24/19 - 0100 33.0 90 30.4 31.8 N | 353 3.7 8.7 28.9 0.00 0.0 182 30.8 33.0 0.00
5/24/19 - 0000 31.8 99 31.5 31.6 N | 7 1.0 6.1 32.3 0.00 0.0 182 31.6 38.3 0.03
5/23/19 - 2300 33.1 97 32.4 32.8 NNE | 14 2.9 6.1 31.1 0.00 0.0 182 31.6 38.3 0.03
5/23/19 - 2200 32.9 100 32.9 32.9 NNE | 29 3.7 10.8 31.4 0.00 0.0 182 31.6 38.3 0.03
5/23/19 - 2100 34.8 93 33.1 34.0 NNE | 14 5.8 10.7 29.8 0.00 0.0 182 31.6 38.3 0.03
5/23/19 - 2000 34.4 95 33.2 33.8 NNW | 347 3.2 7.9 32.1 0.00 0.0 182 31.6 38.3 0.03
5/23/19 - 1900 34.9 98 34.5 34.7 NE | 54 3.5 10.7 33.2 0.00 0.0 182 31.6 38.3 0.03
5/23/19 - 1800 35.2 98 34.7 35.0 ENE | 69 2.1 10.5 34.7 0.00 0.0 182 31.6 38.3 0.03
5/23/19 - 1700 35.4 96 34.4 34.9 NNE | 20 6.0 14.3 30.5 0.00 0.0 182 31.6 38.3 0.03
5/23/19 - 1600 35.4 97 34.6 35.0 NNE | 30 5.0 11.2 33.7 0.00 0.0 182 31.6 38.3 0.03
5/23/19 - 1500 37.1 87 33.4 35.3 NE | 38 4.4 10.4 32.8 0.00 0.0 182 31.6 37.2 0.03
5/23/19 - 1400 35.3 99 35.0 35.2 NE | 37 3.3 8.4 32.7 0.00 0.0 183 31.6 35.4 0.03
Max 43.8 100 35.3 38.3 - 6.0 14.3 41.9 0.00 0.0 183 31.6 44.3 0.03
Avg 35.9 89 32.9 34.5 - 3.3 8.5 33.5 0.00 0.0 182 - - -
Min 31.3 64 29.8 30.6 - 1.0 5.2 28.0 0.00 0.0 181 30.8 33.0 0.00
Total - - - - - - - - 0.00 - - - - -